createdAt,value
2019-03-12T00:00:55.643Z,3.17
2019-03-12T00:01:55.555Z,3.29
2019-03-12T00:02:55.467Z,3.28
2019-03-12T00:03:55.383Z,3.28
2019-03-12T00:04:55.294Z,3.33
2019-03-12T00:05:55.206Z,3.31
2019-03-12T00:06:55.120Z,3.35
2019-03-12T00:07:55.032Z,3.31
2019-03-12T00:08:54.944Z,3.33
2019-03-12T00:09:54.857Z,3.28
2019-03-12T00:10:54.769Z,3.31
2019-03-12T00:11:54.684Z,3.35
2019-03-12T00:12:54.594Z,3.24
2019-03-12T00:13:54.507Z,3.32
2019-03-12T00:14:54.422Z,3.43
2019-03-12T00:15:54.333Z,3.39
2019-03-12T00:16:54.245Z,3.32
2019-03-12T00:17:54.156Z,3.33
2019-03-12T00:18:54.070Z,3.43
2019-03-12T00:19:53.983Z,3.36
2019-03-12T00:20:54.145Z,3.33
2019-03-12T00:21:53.807Z,3.43
2019-03-12T00:22:53.722Z,3.36
2019-03-12T00:23:53.637Z,3.26
2019-03-12T00:24:53.547Z,3.36
2019-03-12T00:25:53.461Z,3.26
2019-03-12T00:26:53.383Z,3.31
2019-03-12T00:27:53.297Z,3.31
2019-03-12T00:28:53.212Z,3.28
2019-03-12T00:29:53.122Z,3.23
2019-03-12T00:30:53.033Z,3.24
2019-03-12T00:31:52.947Z,3.17
2019-03-12T00:32:55.620Z,3.26
2019-03-12T00:33:52.775Z,3.23
2019-03-12T00:34:52.684Z,3.18
2019-03-12T00:35:52.599Z,3.21
2019-03-12T00:36:52.525Z,3.18
2019-03-12T00:37:52.423Z,3.17
2019-03-12T00:38:52.335Z,3.20
2019-03-12T00:39:52.248Z,3.29
2019-03-12T00:40:52.160Z,3.31
2019-03-12T00:41:52.073Z,3.26
2019-03-12T00:42:51.985Z,3.26
2019-03-12T00:43:51.898Z,3.29
2019-03-12T00:44:51.810Z,3.31
2019-03-12T00:45:51.724Z,3.29
2019-03-12T00:46:51.634Z,3.29
2019-03-12T00:47:51.618Z,3.29
2019-03-12T00:48:51.473Z,3.36
2019-03-12T00:49:51.382Z,3.40
2019-03-12T00:50:51.286Z,3.39
2019-03-12T00:51:51.206Z,3.40
2019-03-12T00:52:51.111Z,3.39
2019-03-12T00:53:51.024Z,3.42
2019-03-12T00:54:50.940Z,3.40
2019-03-12T00:55:50.850Z,3.35
2019-03-12T00:56:50.773Z,3.45
2019-03-12T00:57:50.687Z,3.45
2019-03-12T00:58:50.602Z,3.51
2019-03-12T00:59:50.512Z,3.43
2019-03-12T01:00:50.426Z,3.47
2019-03-12T01:01:50.337Z,3.47
2019-03-12T01:02:50.253Z,3.50
2019-03-12T01:03:50.163Z,3.54
2019-03-12T01:04:50.076Z,3.48
2019-03-12T01:05:50.238Z,3.47
2019-03-12T01:06:49.907Z,3.51
2019-03-12T01:07:49.812Z,3.52
2019-03-12T01:08:49.726Z,3.54
2019-03-12T01:09:49.640Z,3.50
2019-03-12T01:10:49.562Z,3.58
2019-03-12T01:11:49.463Z,3.58
2019-03-12T01:12:49.376Z,3.47
2019-03-12T01:13:49.288Z,3.55
2019-03-12T01:14:49.202Z,3.55
2019-03-12T01:15:49.113Z,3.50
2019-03-12T01:16:49.027Z,3.57
2019-03-12T01:17:48.940Z,3.50
2019-03-12T01:18:48.863Z,3.43
2019-03-12T01:19:48.776Z,3.61
2019-03-12T01:20:48.690Z,3.60
2019-03-12T01:21:48.602Z,3.68
2019-03-12T01:22:48.518Z,3.66
2019-03-12T01:23:48.428Z,3.57
2019-03-12T01:24:48.341Z,3.60
2019-03-12T01:25:48.253Z,3.57
2019-03-12T01:26:48.165Z,3.54
2019-03-12T01:27:48.079Z,3.61
2019-03-12T01:28:47.993Z,3.58
2019-03-12T01:29:47.903Z,3.58
2019-03-12T01:30:47.815Z,3.54
2019-03-12T01:31:47.730Z,3.60
2019-03-12T01:32:47.640Z,3.50
2019-03-12T01:33:47.555Z,3.55
2019-03-12T01:34:47.479Z,3.50
2019-03-12T01:35:47.379Z,3.47
2019-03-12T01:36:47.291Z,3.54
2019-03-12T01:37:47.205Z,3.55
2019-03-12T01:38:47.129Z,3.54
2019-03-12T01:39:47.042Z,3.50
2019-03-12T01:40:47.258Z,3.55
2019-03-12T01:41:46.867Z,3.52
2019-03-12T01:42:46.781Z,3.51
2019-03-12T01:43:46.691Z,3.52
2019-03-12T01:44:46.604Z,3.60
2019-03-12T01:45:46.516Z,3.57
2019-03-12T01:46:46.430Z,3.55
2019-03-12T01:47:46.342Z,3.58
2019-03-12T01:48:46.255Z,3.62
2019-03-12T01:49:46.170Z,3.60
2019-03-12T01:50:46.081Z,3.55
2019-03-12T01:51:45.993Z,3.57
2019-03-12T01:52:45.907Z,3.60
2019-03-12T01:53:45.821Z,3.60
2019-03-12T01:54:45.731Z,3.54
2019-03-12T01:55:45.644Z,3.50
2019-03-12T01:56:45.559Z,3.51
2019-03-12T01:57:45.486Z,3.55
2019-03-12T01:58:45.394Z,3.51
2019-03-12T01:59:45.308Z,3.61
2019-03-12T02:00:45.221Z,3.65
2019-03-12T02:01:45.134Z,3.62
2019-03-12T02:02:45.056Z,3.58
2019-03-12T02:03:44.958Z,3.54
2019-03-12T02:04:44.869Z,3.57
2019-03-12T02:05:45.033Z,3.57
2019-03-12T02:06:44.698Z,3.60
2019-03-12T02:07:44.607Z,3.55
2019-03-12T02:08:44.520Z,3.58
2019-03-12T02:09:44.432Z,3.54
2019-03-12T02:10:44.361Z,3.52
2019-03-12T02:11:44.258Z,3.62
2019-03-12T02:12:44.171Z,3.60
2019-03-12T02:13:44.083Z,3.61
2019-03-12T02:14:43.995Z,3.54
2019-03-12T02:15:43.920Z,3.62
2019-03-12T02:16:43.822Z,3.54
2019-03-12T02:17:43.745Z,3.57
2019-03-12T02:18:43.658Z,3.66
2019-03-12T02:19:43.570Z,3.51
2019-03-12T02:20:43.485Z,3.62
2019-03-12T02:21:43.396Z,3.69
2019-03-12T02:22:43.309Z,3.66
2019-03-12T02:23:43.221Z,3.69
2019-03-12T02:24:52.079Z,3.58
2019-03-12T02:25:43.047Z,3.61
2019-03-12T02:26:43.017Z,3.58
2019-03-12T02:27:42.871Z,3.55
2019-03-12T02:28:42.785Z,3.65
2019-03-12T02:29:42.708Z,3.60
2019-03-12T02:30:42.610Z,3.66
2019-03-12T02:31:42.522Z,3.68
2019-03-12T02:32:44.435Z,3.61
2019-03-12T02:33:42.348Z,3.70
2019-03-12T02:34:42.262Z,3.68
2019-03-12T02:35:42.186Z,3.62
2019-03-12T02:36:42.120Z,3.58
2019-03-12T02:37:42.013Z,3.68
2019-03-12T02:38:41.927Z,3.70
2019-03-12T02:39:41.836Z,3.68
2019-03-12T02:40:41.999Z,3.65
2019-03-12T02:41:41.662Z,3.62
2019-03-12T02:42:41.575Z,3.69
2019-03-12T02:43:41.487Z,3.68
2019-03-12T02:44:41.406Z,3.69
2019-03-12T02:45:41.313Z,3.76
2019-03-12T02:46:41.223Z,3.70
2019-03-12T02:47:41.137Z,3.76
2019-03-12T02:48:41.056Z,3.70
2019-03-12T02:49:40.963Z,3.78
2019-03-12T02:50:41.175Z,3.76
2019-03-12T02:51:40.800Z,3.68
2019-03-12T02:52:40.701Z,3.79
2019-03-12T02:53:40.614Z,3.75
2019-03-12T02:54:40.537Z,3.79
2019-03-12T02:55:40.450Z,3.78
2019-03-12T02:56:40.364Z,3.76
2019-03-12T02:57:40.282Z,3.76
2019-03-12T02:58:40.188Z,3.83
2019-03-12T02:59:40.101Z,3.78
2019-03-12T03:00:40.024Z,3.87
2019-03-12T03:01:39.938Z,3.86
2019-03-12T03:02:39.838Z,3.76
2019-03-12T03:03:39.752Z,3.72
2019-03-12T03:04:39.664Z,3.78
2019-03-12T03:05:39.838Z,3.72
2019-03-12T03:06:39.490Z,3.78
2019-03-12T03:07:39.402Z,3.75
2019-03-12T03:08:39.320Z,3.83
2019-03-12T03:09:39.232Z,3.87
2019-03-12T03:10:39.140Z,3.84
2019-03-12T03:11:39.054Z,3.86
2019-03-12T03:12:38.991Z,3.84
2019-03-12T03:13:38.890Z,3.88
2019-03-12T03:14:38.814Z,3.96
2019-03-12T03:15:38.722Z,3.93
2019-03-12T03:16:38.629Z,3.88
2019-03-12T03:17:38.539Z,3.94
2019-03-12T03:18:38.464Z,3.84
2019-03-12T03:19:38.461Z,3.98
2019-03-12T03:20:38.287Z,3.88
2019-03-12T03:21:38.200Z,3.90
2019-03-12T03:22:38.103Z,3.88
2019-03-12T03:23:38.021Z,3.88
2019-03-12T03:24:37.929Z,3.91
2019-03-12T03:25:37.842Z,3.98
2019-03-12T03:26:37.753Z,3.96
2019-03-12T03:27:37.666Z,3.88
2019-03-12T03:28:37.592Z,3.98
2019-03-12T03:29:37.503Z,3.97
2019-03-12T03:30:37.425Z,3.97
2019-03-12T03:31:37.329Z,3.97
2019-03-12T03:32:37.246Z,3.98
2019-03-12T03:33:37.154Z,3.94
2019-03-12T03:34:37.068Z,4.04
2019-03-12T03:35:36.992Z,4.02
2019-03-12T03:36:36.897Z,4.06
2019-03-12T03:37:36.805Z,4.09
2019-03-12T03:38:36.728Z,4.02
2019-03-12T03:39:36.631Z,4.00
2019-03-12T03:40:36.543Z,4.15
2019-03-12T03:41:36.454Z,3.90
2019-03-12T03:42:36.380Z,4.02
2019-03-12T03:43:36.280Z,4.12
2019-03-12T03:44:36.194Z,4.09
2019-03-12T03:45:36.120Z,4.08
2019-03-12T03:46:36.036Z,4.16
2019-03-12T03:47:35.944Z,4.08
2019-03-12T03:48:35.857Z,4.15
2019-03-12T03:49:35.769Z,3.97
2019-03-12T03:50:35.689Z,4.02
2019-03-12T03:51:35.598Z,4.16
2019-03-12T03:52:35.508Z,4.18
2019-03-12T03:53:35.419Z,4.05
2019-03-12T03:54:35.336Z,3.96
2019-03-12T03:55:35.245Z,4.09
2019-03-12T03:56:35.170Z,4.14
2019-03-12T03:57:35.069Z,4.04
2019-03-12T03:58:34.988Z,4.05
2019-03-12T03:59:34.908Z,4.11
2019-03-12T04:00:35.070Z,4.09
2019-03-12T04:01:34.734Z,4.15
2019-03-12T04:02:34.644Z,4.11
2019-03-12T04:03:34.598Z,4.09
2019-03-12T04:04:34.476Z,4.11
2019-03-12T04:05:34.382Z,4.12
2019-03-12T04:06:34.655Z,4.16
2019-03-12T04:07:34.208Z,4.18
2019-03-12T04:08:34.121Z,4.26
2019-03-12T04:09:34.034Z,4.15
2019-03-12T04:10:33.959Z,4.14
2019-03-12T04:11:33.868Z,4.15
2019-03-12T04:12:33.797Z,4.11
2019-03-12T04:13:33.698Z,4.24
2019-03-12T04:14:33.608Z,4.23
2019-03-12T04:15:33.521Z,4.09
2019-03-12T04:16:33.434Z,4.15
2019-03-12T04:17:33.348Z,4.23
2019-03-12T04:18:33.371Z,4.16
2019-03-12T04:19:33.172Z,4.12
2019-03-12T04:20:33.098Z,4.20
2019-03-12T04:21:32.998Z,4.24
2019-03-12T04:22:32.914Z,4.18
2019-03-12T04:23:32.824Z,4.15
2019-03-12T04:24:32.736Z,4.15
2019-03-12T04:25:32.911Z,4.20
2019-03-12T04:26:32.577Z,4.18
2019-03-12T04:27:32.500Z,4.12
2019-03-12T04:28:32.406Z,4.30
2019-03-12T04:29:32.310Z,4.26
2019-03-12T04:30:32.222Z,4.20
2019-03-12T04:31:32.136Z,4.27
2019-03-12T04:32:32.048Z,4.11
2019-03-12T04:33:31.960Z,4.15
2019-03-12T04:34:31.874Z,4.14
2019-03-12T04:35:31.864Z,4.12
2019-03-12T04:36:31.707Z,4.15
2019-03-12T04:37:31.628Z,4.08
2019-03-12T04:38:31.535Z,4.09
2019-03-12T04:39:31.452Z,3.93
2019-03-12T04:40:31.361Z,4.09
2019-03-12T04:41:31.276Z,4.02
2019-03-12T04:42:31.187Z,4.02
2019-03-12T04:43:31.100Z,4.06
2019-03-12T04:44:31.012Z,4.02
2019-03-12T04:45:30.934Z,3.98
2019-03-12T04:46:30.838Z,4.06
2019-03-12T04:47:30.755Z,3.98
2019-03-12T04:48:30.662Z,4.00
2019-03-12T04:49:30.591Z,3.96
2019-03-12T04:50:30.499Z,3.93
2019-03-12T04:51:30.412Z,4.00
2019-03-12T04:52:30.335Z,4.02
2019-03-12T04:53:30.238Z,3.94
2019-03-12T04:54:30.151Z,3.97
2019-03-12T04:55:30.063Z,3.94
2019-03-12T04:56:29.978Z,3.91
2019-03-12T04:57:29.888Z,3.98
2019-03-12T04:58:29.801Z,3.96
2019-03-12T04:59:29.718Z,3.94
2019-03-12T05:00:29.639Z,3.91
2019-03-12T05:01:29.541Z,3.90
2019-03-12T05:02:29.477Z,3.83
2019-03-12T05:03:29.377Z,3.90
2019-03-12T05:04:29.288Z,3.83
2019-03-12T05:05:29.201Z,3.79
2019-03-12T05:06:29.118Z,3.80
2019-03-12T05:07:29.028Z,3.70
2019-03-12T05:08:28.941Z,3.72
2019-03-12T05:09:28.852Z,3.69
2019-03-12T05:10:28.764Z,3.72
2019-03-12T05:11:28.679Z,3.78
2019-03-12T05:12:30.645Z,3.72
2019-03-12T05:13:28.604Z,3.70
2019-03-12T05:14:28.428Z,3.65
2019-03-12T05:15:28.328Z,3.76
2019-03-12T05:16:28.240Z,3.78
2019-03-12T05:17:28.165Z,3.73
2019-03-12T05:18:28.079Z,3.72
2019-03-12T05:19:27.990Z,3.72
2019-03-12T05:20:28.204Z,3.73
2019-03-12T05:21:27.828Z,3.78
2019-03-12T05:22:27.730Z,3.72
2019-03-12T05:23:27.641Z,3.75
2019-03-12T05:24:27.556Z,3.72
2019-03-12T05:25:27.719Z,3.78
2019-03-12T05:26:27.384Z,3.75
2019-03-12T05:27:27.291Z,3.84
2019-03-12T05:28:27.204Z,3.78
2019-03-12T05:29:27.120Z,3.75
2019-03-12T05:30:27.032Z,3.75
2019-03-12T05:31:26.954Z,3.75
2019-03-12T05:32:26.866Z,3.75
2019-03-12T05:33:26.792Z,3.79
2019-03-12T05:34:26.709Z,3.78
2019-03-12T05:35:26.855Z,3.75
2019-03-12T05:36:26.517Z,3.84
2019-03-12T05:37:26.432Z,3.78
2019-03-12T05:38:26.356Z,3.84
2019-03-12T05:39:26.360Z,3.80
2019-03-12T05:40:26.168Z,3.88
2019-03-12T05:41:26.082Z,3.84
2019-03-12T05:42:25.995Z,3.91
2019-03-12T05:43:25.906Z,3.84
2019-03-12T05:44:25.818Z,3.87
2019-03-12T05:45:25.731Z,3.88
2019-03-12T05:46:25.645Z,3.90
2019-03-12T05:47:25.575Z,3.84
2019-03-12T05:48:25.482Z,3.88
2019-03-12T05:49:25.514Z,3.93
2019-03-12T05:50:25.306Z,3.91
2019-03-12T05:51:25.219Z,3.97
2019-03-12T05:52:25.136Z,3.94
2019-03-12T05:53:25.044Z,3.88
2019-03-12T05:54:24.958Z,3.91
2019-03-12T05:55:24.883Z,3.97
2019-03-12T05:56:24.782Z,3.90
2019-03-12T05:57:24.696Z,3.90
2019-03-12T05:58:24.607Z,3.90
2019-03-12T05:59:24.521Z,3.91
2019-03-12T06:00:24.434Z,3.93
2019-03-12T06:01:24.363Z,4.00
2019-03-12T06:02:24.270Z,4.04
2019-03-12T06:03:24.188Z,3.87
2019-03-12T06:04:24.098Z,3.98
2019-03-12T06:05:24.809Z,4.00
2019-03-12T06:06:23.933Z,4.04
2019-03-12T06:07:23.834Z,3.97
2019-03-12T06:08:23.746Z,4.02
2019-03-12T06:09:30.081Z,4.02
2019-03-12T06:10:23.572Z,3.98
2019-03-12T06:11:23.497Z,3.94
2019-03-12T06:12:23.399Z,4.02
2019-03-12T06:13:23.324Z,3.91
2019-03-12T06:14:23.235Z,3.98
2019-03-12T06:15:23.147Z,4.00
2019-03-12T06:16:23.062Z,4.05
2019-03-12T06:17:22.986Z,3.97
2019-03-12T06:18:22.885Z,4.16
2019-03-12T06:19:22.797Z,4.18
2019-03-12T06:20:22.713Z,4.06
2019-03-12T06:21:22.622Z,4.11
2019-03-12T06:22:22.536Z,4.12
2019-03-12T06:23:22.448Z,4.06
2019-03-12T06:24:22.361Z,4.11
2019-03-12T06:25:22.276Z,4.20
2019-03-12T06:26:22.210Z,4.14
2019-03-12T06:27:22.112Z,4.18
2019-03-12T06:28:22.043Z,4.16
2019-03-12T06:29:21.936Z,4.18
2019-03-12T06:30:21.854Z,4.23
2019-03-12T06:31:21.761Z,4.15
2019-03-12T06:32:21.673Z,4.14
2019-03-12T06:33:24.141Z,4.30
2019-03-12T06:34:21.511Z,4.23
2019-03-12T06:35:21.412Z,4.34
2019-03-12T06:36:21.325Z,4.29
2019-03-12T06:37:21.249Z,4.36
2019-03-12T06:38:21.162Z,4.26
2019-03-12T06:39:21.075Z,4.45
2019-03-12T06:40:20.989Z,4.47
2019-03-12T06:41:20.900Z,4.59
2019-03-12T06:42:20.812Z,4.59
2019-03-12T06:43:20.725Z,4.59
2019-03-12T06:44:20.638Z,4.62
2019-03-12T06:45:20.552Z,4.55
2019-03-12T06:46:20.464Z,4.59
2019-03-12T06:47:20.388Z,4.58
2019-03-12T06:48:20.302Z,4.59
2019-03-12T06:49:20.214Z,4.60
2019-03-12T06:50:20.125Z,4.51
2019-03-12T06:51:20.039Z,4.59
2019-03-12T06:52:19.951Z,4.50
2019-03-12T06:53:19.864Z,4.47
2019-03-12T06:54:19.776Z,4.41
2019-03-12T06:55:19.701Z,4.41
2019-03-12T06:56:19.616Z,4.48
2019-03-12T06:57:19.526Z,4.52
2019-03-12T06:58:19.439Z,4.48
2019-03-12T06:59:19.365Z,4.48
2019-03-12T07:00:19.265Z,4.44
2019-03-12T07:01:19.177Z,4.47
2019-03-12T07:02:19.179Z,4.48
2019-03-12T07:03:19.003Z,4.50
2019-03-12T07:04:18.926Z,4.48
2019-03-12T07:05:18.841Z,4.59
2019-03-12T07:06:18.753Z,4.55
2019-03-12T07:07:18.668Z,4.59
2019-03-12T07:08:18.629Z,4.69
2019-03-12T07:09:18.491Z,4.85
2019-03-12T07:10:18.406Z,4.82
2019-03-12T07:11:18.327Z,4.88
2019-03-12T07:12:18.241Z,4.78
2019-03-12T07:13:18.153Z,4.78
2019-03-12T07:14:18.067Z,4.69
2019-03-12T07:15:17.978Z,4.75
2019-03-12T07:16:17.895Z,4.73
2019-03-12T07:17:17.805Z,4.73
2019-03-12T07:18:17.717Z,4.75
2019-03-12T07:19:17.644Z,4.58
2019-03-12T07:20:17.554Z,4.77
2019-03-12T07:21:17.467Z,4.84
2019-03-12T07:22:17.391Z,4.70
2019-03-12T07:23:17.292Z,4.73
2019-03-12T07:24:17.204Z,4.70
2019-03-12T07:25:17.118Z,4.78
2019-03-12T07:26:17.031Z,4.80
2019-03-12T07:27:16.966Z,4.75
2019-03-12T07:28:16.870Z,4.84
2019-03-12T07:29:16.780Z,4.85
2019-03-12T07:30:16.699Z,4.89
2019-03-12T07:31:16.665Z,4.94
2019-03-12T07:32:16.519Z,4.94
2019-03-12T07:33:16.443Z,4.94
2019-03-12T07:34:18.033Z,5.13
2019-03-12T07:35:16.272Z,5.20
2019-03-12T07:36:16.180Z,5.40
2019-03-12T07:37:16.094Z,5.42
2019-03-12T07:38:16.006Z,5.45
2019-03-12T07:39:15.919Z,5.39
2019-03-12T07:40:15.831Z,5.42
2019-03-12T07:41:26.457Z,5.45
2019-03-12T07:42:15.670Z,5.51
2019-03-12T07:43:15.581Z,5.38
2019-03-12T07:44:15.602Z,5.40
2019-03-12T07:45:15.407Z,5.46
2019-03-12T07:46:15.414Z,5.45
2019-03-12T07:47:15.234Z,5.48
2019-03-12T07:48:15.169Z,5.56
2019-03-12T07:49:15.070Z,5.54
2019-03-12T07:50:14.982Z,5.53
2019-03-12T07:51:14.897Z,5.48
2019-03-12T07:52:14.810Z,5.56
2019-03-12T07:53:14.732Z,5.49
2019-03-12T07:54:14.646Z,5.53
2019-03-12T07:55:14.558Z,5.43
2019-03-12T07:56:14.471Z,5.33
2019-03-12T07:57:14.382Z,5.27
2019-03-12T07:58:14.297Z,5.17
2019-03-12T07:59:14.221Z,5.30
2019-03-12T08:00:14.133Z,5.24
2019-03-12T08:01:14.054Z,5.22
2019-03-12T08:02:13.959Z,5.21
2019-03-12T08:03:13.873Z,5.30
2019-03-12T08:04:13.784Z,5.39
2019-03-12T08:05:13.721Z,5.46
2019-03-12T08:06:13.622Z,5.45
2019-03-12T08:07:13.536Z,5.56
2019-03-12T08:08:13.448Z,5.48
2019-03-12T08:09:13.359Z,5.42
2019-03-12T08:10:13.274Z,5.54
2019-03-12T08:11:13.198Z,5.46
2019-03-12T08:12:13.110Z,5.53
2019-03-12T08:13:13.023Z,5.57
2019-03-12T08:14:12.936Z,5.57
2019-03-12T08:15:22.606Z,5.51
2019-03-12T08:16:12.762Z,5.54
2019-03-12T08:17:12.687Z,5.56
2019-03-12T08:18:12.598Z,5.48
2019-03-12T08:19:12.512Z,5.54
2019-03-12T08:20:12.423Z,5.56
2019-03-12T08:21:21.603Z,5.58
2019-03-12T08:22:12.263Z,5.65
2019-03-12T08:23:12.178Z,5.58
2019-03-12T08:24:13.754Z,5.67
2019-03-12T08:25:12.000Z,5.72
2019-03-12T08:26:11.913Z,5.79
2019-03-12T08:27:11.850Z,5.93
2019-03-12T08:28:11.754Z,5.91
2019-03-12T08:29:11.662Z,6.06
2019-03-12T08:30:11.574Z,6.17
2019-03-12T08:31:11.487Z,6.12
2019-03-12T08:32:11.400Z,6.19
2019-03-12T08:33:11.325Z,6.18
2019-03-12T08:34:11.237Z,6.25
2019-03-12T08:35:11.150Z,6.27
2019-03-12T08:36:11.075Z,6.25
2019-03-12T08:37:10.976Z,6.21
2019-03-12T08:38:10.900Z,6.06
2019-03-12T08:39:10.814Z,6.08
2019-03-12T08:40:10.727Z,6.00
2019-03-12T08:41:10.638Z,6.04
2019-03-12T08:42:10.567Z,6.06
2019-03-12T08:43:10.477Z,6.12
2019-03-12T08:44:10.391Z,6.19
2019-03-12T08:45:11.237Z,6.17
2019-03-12T08:46:10.236Z,6.17
2019-03-12T08:47:10.138Z,6.14
2019-03-12T08:48:12.708Z,6.14
2019-03-12T08:49:09.965Z,6.17
2019-03-12T08:50:09.888Z,6.06
2019-03-12T08:51:09.803Z,6.11
2019-03-12T08:52:09.727Z,6.14
2019-03-12T08:53:09.628Z,6.27
2019-03-12T08:54:09.539Z,6.22
2019-03-12T08:55:09.460Z,6.30
2019-03-12T08:56:09.378Z,6.17
2019-03-12T08:57:09.289Z,6.25
2019-03-12T08:58:09.203Z,6.21
2019-03-12T08:59:09.117Z,6.27
2019-03-12T09:00:09.040Z,6.27
2019-03-12T09:01:08.954Z,6.18
2019-03-12T09:02:08.865Z,6.21
2019-03-12T09:03:08.779Z,6.15
2019-03-12T09:04:08.703Z,6.27
2019-03-12T09:05:08.615Z,6.18
2019-03-12T09:06:08.529Z,6.04
2019-03-12T09:07:08.441Z,6.15
2019-03-12T09:08:08.359Z,6.30
2019-03-12T09:09:08.283Z,6.28
2019-03-12T09:10:08.195Z,6.34
2019-03-12T09:11:08.107Z,6.49
2019-03-12T09:12:08.016Z,6.49
2019-03-12T09:13:07.935Z,6.44
2019-03-12T09:14:07.855Z,6.46
2019-03-12T09:15:07.772Z,6.36
2019-03-12T09:16:07.680Z,6.43
2019-03-12T09:17:07.592Z,6.36
2019-03-12T09:18:07.517Z,6.41
2019-03-12T09:19:07.431Z,6.49
2019-03-12T09:20:07.342Z,6.55
2019-03-12T09:21:07.255Z,6.66
2019-03-12T09:22:07.182Z,6.79
2019-03-12T09:23:07.106Z,6.79
2019-03-12T09:24:07.006Z,6.98
2019-03-12T09:25:06.917Z,7.15
2019-03-12T09:26:06.832Z,7.39
2019-03-12T09:27:06.756Z,7.34
2019-03-12T09:28:06.668Z,7.52
2019-03-12T09:29:06.581Z,7.77
2019-03-12T09:30:06.495Z,7.95
2019-03-12T09:31:06.419Z,7.87
2019-03-12T09:32:06.333Z,8.01
2019-03-12T09:33:06.244Z,8.10
2019-03-12T09:34:06.173Z,8.23
2019-03-12T09:35:06.082Z,8.56
2019-03-12T09:36:05.998Z,8.95
2019-03-12T09:37:05.908Z,9.04
2019-03-12T09:38:05.834Z,8.98
2019-03-12T09:39:05.759Z,9.17
2019-03-12T09:40:05.681Z,9.23
2019-03-12T09:41:05.591Z,9.20
2019-03-12T09:42:05.504Z,9.26
2019-03-12T09:43:05.411Z,9.35
2019-03-12T09:44:05.335Z,9.29
2019-03-12T09:45:05.429Z,8.99
2019-03-12T09:46:05.159Z,9.11
2019-03-12T09:47:05.087Z,8.84
2019-03-12T09:48:04.995Z,8.70
2019-03-12T09:49:04.915Z,8.30
2019-03-12T09:50:04.834Z,8.08
2019-03-12T09:51:04.758Z,8.25
2019-03-12T09:52:04.670Z,8.34
2019-03-12T09:53:04.587Z,8.23
2019-03-12T09:54:04.496Z,8.20
2019-03-12T09:55:05.009Z,8.18
2019-03-12T09:56:04.335Z,8.37
2019-03-12T09:57:04.250Z,8.36
2019-03-12T09:58:04.171Z,8.50
2019-03-12T09:59:04.086Z,8.63
2019-03-12T10:00:15.697Z,8.74
2019-03-12T10:01:03.924Z,8.81
2019-03-12T10:02:03.837Z,8.87
2019-03-12T10:03:03.760Z,8.81
2019-03-12T10:04:03.721Z,8.92
2019-03-12T10:05:03.586Z,8.77
2019-03-12T10:06:03.511Z,8.91
2019-03-12T10:07:03.422Z,8.74
2019-03-12T10:08:03.347Z,8.83
2019-03-12T10:09:03.264Z,9.01
2019-03-12T10:10:03.173Z,9.33
2019-03-12T10:11:03.098Z,9.39
2019-03-12T10:12:03.013Z,9.57
2019-03-12T10:13:02.923Z,9.60
2019-03-12T10:14:02.848Z,9.42
2019-03-12T10:15:02.768Z,9.18
2019-03-12T10:16:02.678Z,9.31
2019-03-12T10:17:02.598Z,9.29
2019-03-12T10:18:02.775Z,9.39
2019-03-12T10:19:02.438Z,9.50
2019-03-12T10:20:02.349Z,9.72
2019-03-12T10:21:02.265Z,9.91
2019-03-12T10:22:02.192Z,10.07
2019-03-12T10:23:02.099Z,10.17
2019-03-12T10:24:02.013Z,10.07
2019-03-12T10:25:01.938Z,9.90
2019-03-12T10:26:01.850Z,9.64
2019-03-12T10:27:01.779Z,9.28
2019-03-12T10:28:01.689Z,9.04
2019-03-12T10:29:01.603Z,9.05
2019-03-12T10:30:01.544Z,8.96
2019-03-12T10:31:01.439Z,8.96
2019-03-12T10:32:01.363Z,9.23
2019-03-12T10:33:01.303Z,9.50
2019-03-12T10:34:01.202Z,9.94
2019-03-12T10:35:01.114Z,10.15
2019-03-12T10:36:01.046Z,10.52
2019-03-12T10:37:11.352Z,10.53
2019-03-12T10:38:00.865Z,9.74
2019-03-12T10:39:00.789Z,10.08
2019-03-12T10:40:00.701Z,10.18
2019-03-12T10:41:00.614Z,10.04
2019-03-12T10:42:00.541Z,9.91
2019-03-12T10:43:00.451Z,9.31
2019-03-12T10:44:00.376Z,10.01
2019-03-12T10:45:00.385Z,10.66
2019-03-12T10:46:00.215Z,10.55
2019-03-12T10:47:00.127Z,10.71
2019-03-12T10:48:00.039Z,10.73
2019-03-12T10:48:59.965Z,11.10
2019-03-12T10:49:59.877Z,11.76
2019-03-12T10:50:59.819Z,11.95
2019-03-12T10:51:59.715Z,11.61
2019-03-12T10:52:59.628Z,11.22
2019-03-12T10:53:59.552Z,11.00
2019-03-12T10:55:11.866Z,10.02
2019-03-12T10:55:59.391Z,10.26
2019-03-12T10:56:59.316Z,9.99
2019-03-12T10:57:59.228Z,10.05
2019-03-12T10:58:59.141Z,10.18
2019-03-12T10:59:59.066Z,10.66
2019-03-12T11:00:58.979Z,10.04
2019-03-12T11:01:58.903Z,10.59
2019-03-12T11:02:58.820Z,10.48
2019-03-12T11:03:58.742Z,9.86
2019-03-12T11:04:58.654Z,9.84
2019-03-12T11:05:58.566Z,9.87
2019-03-12T11:06:58.491Z,9.96
2019-03-12T11:07:58.404Z,9.89
2019-03-12T11:08:58.342Z,9.58
2019-03-12T11:09:58.243Z,9.53
2019-03-12T11:10:58.222Z,9.56
2019-03-12T11:11:58.135Z,9.40
2019-03-12T11:12:58.010Z,9.17
2019-03-12T11:13:57.918Z,9.05
2019-03-12T11:14:57.846Z,8.98
2019-03-12T11:15:57.759Z,9.13
2019-03-12T11:16:57.668Z,9.21
2019-03-12T11:17:57.592Z,9.56
2019-03-12T11:18:57.509Z,10.08
2019-03-12T11:19:57.431Z,10.97
2019-03-12T11:20:58.729Z,11.70
2019-03-12T11:21:57.256Z,11.57
2019-03-12T11:22:57.193Z,11.11
2019-03-12T11:23:57.094Z,11.47
2019-03-12T11:24:57.019Z,11.44
2019-03-12T11:25:56.931Z,11.73
2019-03-12T11:26:56.856Z,12.01
2019-03-12T11:27:56.773Z,11.70
2019-03-12T11:28:56.697Z,11.49
2019-03-12T11:29:56.607Z,11.18
2019-03-12T11:30:56.532Z,10.84
2019-03-12T11:31:56.446Z,11.33
2019-03-12T11:32:56.370Z,10.74
2019-03-12T11:33:56.282Z,10.47
2019-03-12T11:34:56.209Z,10.47
2019-03-12T11:35:56.156Z,10.38
2019-03-12T11:36:56.047Z,9.91
2019-03-12T11:37:55.979Z,9.78
2019-03-12T11:38:55.898Z,9.61
2019-03-12T11:39:55.796Z,9.68
2019-03-12T11:40:55.744Z,9.74
2019-03-12T11:41:55.638Z,9.75
2019-03-12T11:42:55.583Z,10.04
2019-03-12T11:43:55.472Z,11.11
2019-03-12T11:44:55.400Z,11.51
2019-03-12T11:45:55.352Z,11.57
2019-03-12T11:46:55.263Z,11.49
2019-03-12T11:47:55.162Z,12.02
2019-03-12T11:48:55.072Z,12.38
2019-03-12T11:49:54.984Z,12.20
2019-03-12T11:50:55.221Z,13.28
2019-03-12T11:51:54.823Z,13.69
2019-03-12T11:52:58.053Z,14.52
2019-03-12T11:53:54.660Z,15.13
2019-03-12T11:54:54.586Z,14.69
2019-03-12T11:55:54.513Z,13.51
2019-03-12T11:56:54.431Z,13.44
2019-03-12T11:57:54.384Z,13.51
2019-03-12T11:58:54.276Z,12.90
2019-03-12T11:59:54.362Z,12.68
2019-03-12T12:00:54.103Z,12.12
2019-03-12T12:01:54.023Z,11.91
2019-03-12T12:02:59.980Z,11.14
2019-03-12T12:03:53.862Z,11.86
2019-03-12T12:04:53.774Z,12.46
2019-03-12T12:05:53.786Z,13.10
2019-03-12T12:06:53.627Z,12.29
2019-03-12T12:07:53.714Z,12.97
2019-03-12T12:08:53.462Z,12.12
2019-03-12T12:09:53.375Z,13.05
2019-03-12T12:10:53.300Z,11.91
2019-03-12T12:11:53.225Z,11.28
2019-03-12T12:12:53.137Z,10.94
2019-03-12T12:13:53.064Z,10.97
2019-03-12T12:14:52.975Z,10.91
2019-03-12T12:15:52.901Z,10.85
2019-03-12T12:16:52.813Z,10.76
2019-03-12T12:17:52.739Z,10.64
2019-03-12T12:18:52.668Z,10.30
2019-03-12T12:19:52.575Z,10.41
2019-03-12T12:20:52.500Z,10.52
2019-03-12T12:21:52.413Z,10.56
2019-03-12T12:22:52.337Z,10.41
2019-03-12T12:23:52.262Z,10.29
2019-03-12T12:24:52.176Z,10.63
2019-03-12T12:25:52.100Z,11.42
2019-03-12T12:26:52.014Z,12.24
2019-03-12T12:27:51.926Z,12.90
2019-03-12T12:28:51.840Z,13.60
2019-03-12T12:29:51.776Z,14.24
2019-03-12T12:30:51.689Z,12.70
2019-03-12T12:31:51.601Z,12.60
2019-03-12T12:32:51.517Z,12.52
2019-03-12T12:33:51.439Z,12.27
2019-03-12T12:34:51.363Z,12.59
2019-03-12T12:35:51.288Z,12.32
2019-03-12T12:36:51.202Z,12.39
2019-03-12T12:37:51.118Z,12.78
2019-03-12T12:38:51.055Z,12.70
2019-03-12T12:39:50.953Z,12.56
2019-03-12T12:40:50.882Z,12.29
2019-03-12T12:41:50.790Z,12.39
2019-03-12T12:42:50.715Z,11.82
2019-03-12T12:43:50.628Z,12.09
2019-03-12T12:44:50.553Z,11.67
2019-03-12T12:45:50.486Z,11.76
2019-03-12T12:46:50.390Z,10.97
2019-03-12T12:47:50.315Z,10.71
2019-03-12T12:48:53.090Z,10.66
2019-03-12T12:49:50.153Z,10.48
2019-03-12T12:51:02.592Z,10.15
2019-03-12T12:51:49.995Z,10.47
2019-03-12T12:52:49.904Z,10.97
2019-03-12T12:53:49.833Z,11.44
2019-03-12T12:54:49.741Z,11.51
2019-03-12T12:55:49.668Z,12.07
2019-03-12T12:56:49.579Z,11.73
2019-03-12T12:57:49.504Z,11.51
2019-03-12T12:58:49.416Z,11.47
2019-03-12T12:59:49.343Z,11.49
2019-03-12T13:00:49.255Z,11.98
2019-03-12T13:01:49.179Z,11.79
2019-03-12T13:02:49.093Z,11.25
2019-03-12T13:03:49.017Z,11.36
2019-03-12T13:04:48.930Z,11.49
2019-03-12T13:05:48.861Z,11.76
2019-03-12T13:06:48.767Z,12.31
2019-03-12T13:07:48.693Z,12.57
2019-03-12T13:08:48.608Z,12.39
2019-03-12T13:09:48.531Z,12.50
2019-03-12T13:10:48.442Z,12.68
2019-03-12T13:11:48.367Z,12.62
2019-03-12T13:12:48.281Z,12.53